createdAt,value
2022-11-23T00:01:28.929Z,17.97
2022-11-23T00:03:59.276Z,20.17
2022-11-23T00:06:28.690Z,19.10
2022-11-23T00:08:57.723Z,15.47
2022-11-23T00:11:28.348Z,13.70
2022-11-23T00:13:57.324Z,18.73
2022-11-23T00:16:29.138Z,16.63
2022-11-23T00:18:59.515Z,17.23
2022-11-23T00:21:29.917Z,16.50
2022-11-23T00:23:58.930Z,13.77
2022-11-23T00:26:27.590Z,14.03
2022-11-23T00:28:56.513Z,14.07
2022-11-23T00:31:30.381Z,15.33
2022-11-23T00:34:00.126Z,15.90
2022-11-23T00:36:29.489Z,17.77
2022-11-23T00:39:01.247Z,14.93
2022-11-23T00:41:29.996Z,15.13
2022-11-23T00:43:58.616Z,15.30
2022-11-23T00:46:30.308Z,13.77
2022-11-23T00:48:59.047Z,16.57
2022-11-23T00:51:30.034Z,12.63
2022-11-23T00:53:59.680Z,12.70
2022-11-23T00:56:29.256Z,13.53
2022-11-23T00:58:59.650Z,13.93
2022-11-23T01:01:31.091Z,16.30
2022-11-23T01:04:00.835Z,13.47
2022-11-23T01:06:34.507Z,12.17
2022-11-23T01:09:06.731Z,14.40
2022-11-23T01:11:35.545Z,11.97
2022-11-23T01:14:04.372Z,14.37
2022-11-23T01:16:36.484Z,12.53
2022-11-23T01:19:06.965Z,16.40
2022-11-23T01:21:36.818Z,14.87
2022-11-23T01:24:08.262Z,15.10
2022-11-23T01:26:40.703Z,11.97
2022-11-23T01:29:09.653Z,12.63
2022-11-23T01:31:46.511Z,12.23
2022-11-23T01:34:17.901Z,12.70
2022-11-23T01:36:46.873Z,12.00
2022-11-23T01:39:15.847Z,15.33
2022-11-23T01:41:47.654Z,12.70
2022-11-23T01:44:28.646Z,15.07
2022-11-23T01:47:00.044Z,15.13
2022-11-23T01:49:39.500Z,13.80
2022-11-23T01:52:10.879Z,11.13
2022-11-23T01:54:45.751Z,13.47
2022-11-23T01:57:19.911Z,11.77
2022-11-23T01:59:50.513Z,12.13
2022-11-23T02:02:21.151Z,14.67
2022-11-23T02:04:56.372Z,11.60
2022-11-23T02:07:26.657Z,15.37
2022-11-23T02:09:55.545Z,13.77
2022-11-23T02:12:24.081Z,13.33
2022-11-23T02:14:52.857Z,13.87
2022-11-23T02:17:23.313Z,12.53
2022-11-23T02:20:04.321Z,14.53
2022-11-23T02:22:39.107Z,11.40
2022-11-23T02:25:13.728Z,11.43
2022-11-23T02:27:47.116Z,8.13
2022-11-23T02:30:16.085Z,9.20
2022-11-23T02:32:45.288Z,8.53
2022-11-23T02:35:14.395Z,9.90
2022-11-23T02:37:45.252Z,8.63
2022-11-23T02:40:24.345Z,8.73
2022-11-23T02:45:44.976Z,6.57
2022-11-23T02:48:13.409Z,6.73
2022-11-23T02:50:42.117Z,7.83
2022-11-23T02:53:11.246Z,7.73
2022-11-23T02:55:39.920Z,7.30
2022-11-23T02:58:10.359Z,8.40
2022-11-23T03:00:41.306Z,8.73
2022-11-23T03:03:11.125Z,7.77
2022-11-23T03:05:41.931Z,9.93
2022-11-23T03:08:10.444Z,7.70
2022-11-23T03:10:40.910Z,9.17
2022-11-23T03:13:11.401Z,8.23
2022-11-23T03:15:41.774Z,8.60
2022-11-23T03:18:14.068Z,8.23
2022-11-23T03:20:42.905Z,8.37
2022-11-23T03:23:11.562Z,8.57
2022-11-23T03:25:41.234Z,7.60
2022-11-23T03:28:12.157Z,6.07
2022-11-23T03:30:44.979Z,6.03
2022-11-23T03:33:14.014Z,7.20
2022-11-23T03:35:42.765Z,5.97
2022-11-23T03:38:34.678Z,6.03
2022-11-23T03:41:05.139Z,7.20
2022-11-23T03:43:49.474Z,6.57
2022-11-23T03:46:18.336Z,6.20
2022-11-23T03:48:46.961Z,6.53
2022-11-23T03:51:15.708Z,3.87
2022-11-23T03:53:47.078Z,5.50
2022-11-23T03:56:19.760Z,4.80
2022-11-23T03:58:49.948Z,3.57
2022-11-23T04:01:18.960Z,4.27
2022-11-23T04:03:54.082Z,3.80
2022-11-23T04:06:38.036Z,3.60
2022-11-23T04:09:27.040Z,5.23
2022-11-23T04:12:08.274Z,4.73
2022-11-23T04:14:41.583Z,4.57
2022-11-23T04:17:10.451Z,5.23
2022-11-23T04:19:39.585Z,6.47
2022-11-23T04:22:08.225Z,4.53
2022-11-23T04:24:44.590Z,4.03
2022-11-23T04:27:13.225Z,4.30
2022-11-23T04:29:43.399Z,4.70
2022-11-23T04:32:13.177Z,5.93
2022-11-23T04:34:41.819Z,4.63
2022-11-23T04:37:13.730Z,3.03
2022-11-23T04:39:44.409Z,3.53
2022-11-23T04:42:26.759Z,3.73
2022-11-23T04:45:01.133Z,3.17
2022-11-23T04:47:35.847Z,3.33
2022-11-23T04:50:09.799Z,4.00
2022-11-23T04:52:38.538Z,3.90
2022-11-23T04:55:13.007Z,4.27
2022-11-23T04:57:49.970Z,4.47
2022-11-23T05:00:21.065Z,7.77
2022-11-23T05:02:49.948Z,11.07
2022-11-23T05:05:40.283Z,5.50
2022-11-23T05:08:11.151Z,5.03
2022-11-23T05:10:59.988Z,4.60
2022-11-23T05:13:28.601Z,4.73
2022-11-23T05:16:00.231Z,5.33
2022-11-23T05:18:30.575Z,6.17
2022-11-23T05:20:59.798Z,5.57
2022-11-23T05:23:29.141Z,4.57
2022-11-23T05:25:57.704Z,6.37
2022-11-23T05:28:42.285Z,6.03
2022-11-23T05:31:16.689Z,6.67
2022-11-23T05:33:47.687Z,5.50
2022-11-23T05:36:20.468Z,6.53
2022-11-23T05:38:49.032Z,7.07
2022-11-23T05:41:25.453Z,7.53
2022-11-23T05:43:58.709Z,11.00
2022-11-23T05:46:31.448Z,9.17
2022-11-23T05:49:00.007Z,11.13
2022-11-23T05:51:32.120Z,8.97
2022-11-23T05:54:03.096Z,14.90
2022-11-23T06:00:49.807Z,10.73
2022-11-23T06:03:21.064Z,16.20
2022-11-23T06:05:49.472Z,13.17
2022-11-23T06:08:21.465Z,14.43
2022-11-23T06:10:50.554Z,12.40
2022-11-23T06:13:19.374Z,17.37
2022-11-23T06:15:48.068Z,15.93
2022-11-23T06:18:22.629Z,18.33
2022-11-23T06:20:51.542Z,19.30
2022-11-23T06:23:20.301Z,13.13
2022-11-23T06:25:49.242Z,20.20
2022-11-23T06:28:22.937Z,15.47
2022-11-23T06:30:52.340Z,17.67
2022-11-23T06:33:25.209Z,18.23
2022-11-23T06:35:56.183Z,18.80
2022-11-23T06:38:27.471Z,14.63
2022-11-23T06:41:18.608Z,18.53
2022-11-23T06:43:51.966Z,15.87
2022-11-23T22:31:59.803Z,11.03
2022-11-23T22:34:29.999Z,15.97
2022-11-23T22:36:58.524Z,12.53
2022-11-23T22:39:26.985Z,10.47
2022-11-23T22:41:55.771Z,10.80
2022-11-23T22:44:24.441Z,10.47
2022-11-23T22:46:54.481Z,13.70
2022-11-23T22:49:24.566Z,12.47
2022-11-23T22:51:53.174Z,11.77
2022-11-23T22:54:21.801Z,6.90
2022-11-23T22:56:50.457Z,10.17
2022-11-23T22:59:21.445Z,13.00
2022-11-23T23:01:50.254Z,12.53
2022-11-23T23:04:21.574Z,11.17
2022-11-23T23:06:51.703Z,9.93
2022-11-23T23:09:20.537Z,9.67
2022-11-23T23:11:51.357Z,9.57
2022-11-23T23:14:20.082Z,9.77
2022-11-23T23:16:48.804Z,9.70
2022-11-23T23:19:19.099Z,15.33
2022-11-23T23:21:50.586Z,12.20
2022-11-23T23:24:20.705Z,10.37
2022-11-23T23:26:49.258Z,11.33
2022-11-23T23:29:17.717Z,10.67
2022-11-23T23:31:46.352Z,8.23
2022-11-23T23:34:14.985Z,8.90
2022-11-23T23:36:43.671Z,12.87
2022-11-23T23:39:13.677Z,12.30
2022-11-23T23:41:43.609Z,12.87
2022-11-23T23:44:12.184Z,12.77
2022-11-23T23:46:40.943Z,13.90
2022-11-23T23:49:09.401Z,9.80
2022-11-23T23:51:38.017Z,13.43
2022-11-23T23:54:07.091Z,12.80
2022-11-23T23:56:38.680Z,11.60
2022-11-23T23:59:08.718Z,9.53
